sensor_id;sensor_type;location;lat;lon;timestamp;pressure;altitude;pressure_sealevel;temperature;humidity
73429;BME280;61643;49.564;17.412;2024-03-08T00:01:21;98521.81;;;1.59;100.00
73429;BME280;61643;49.564;17.412;2024-03-08T00:03:47;98521.66;;;1.67;100.00
73429;BME280;61643;49.564;17.412;2024-03-08T00:06:13;98507.56;;;1.67;100.00
73429;BME280;61643;49.564;17.412;2024-03-08T00:08:41;98494.28;;;1.67;100.00
73429;BME280;61643;49.564;17.412;2024-03-08T00:11:07;98482.53;;;1.48;100.00
73429;BME280;61643;49.564;17.412;2024-03-08T00:13:33;98499.84;;;1.44;100.00
73429;BME280;61643;49.564;17.412;2024-03-08T00:16:00;98501.28;;;1.46;100.00
73429;BME280;61643;49.564;17.412;2024-03-08T00:18:26;98495.72;;;1.63;100.00
73429;BME280;61643;49.564;17.412;2024-03-08T00:20:52;98498.97;;;1.65;100.00
73429;BME280;61643;49.564;17.412;2024-03-08T00:23:18;98510.47;;;1.72;100.00
73429;BME280;61643;49.564;17.412;2024-03-08T00:25:44;98490.25;;;1.71;100.00
73429;BME280;61643;49.564;17.412;2024-03-08T00:28:10;98504.91;;;1.67;100.00
73429;BME280;61643;49.564;17.412;2024-03-08T00:30:39;98501.88;;;1.70;100.00
73429;BME280;61643;49.564;17.412;2024-03-08T00:33:05;98492.31;;;1.47;100.00
73429;BME280;61643;49.564;17.412;2024-03-08T00:35:31;98492.81;;;1.58;100.00
73429;BME280;61643;49.564;17.412;2024-03-08T00:37:57;98498.38;;;1.63;100.00
73429;BME280;61643;49.564;17.412;2024-03-08T00:40:23;98489.28;;;1.51;100.00
73429;BME280;61643;49.564;17.412;2024-03-08T00:42:49;98506.41;;;1.48;100.00
73429;BME280;61643;49.564;17.412;2024-03-08T00:45:15;98481.97;;;1.31;100.00
73429;BME280;61643;49.564;17.412;2024-03-08T00:47:41;98486.06;;;1.34;100.00
73429;BME280;61643;49.564;17.412;2024-03-08T00:50:09;98516.19;;;1.47;100.00
73429;BME280;61643;49.564;17.412;2024-03-08T00:52:35;98506.59;;;1.46;100.00
73429;BME280;61643;49.564;17.412;2024-03-08T00:55:01;98504.91;;;1.39;100.00
73429;BME280;61643;49.564;17.412;2024-03-08T00:57:27;98497.84;;;1.53;100.00
73429;BME280;61643;49.564;17.412;2024-03-08T00:59:53;98480.84;;;1.40;100.00
73429;BME280;61643;49.564;17.412;2024-03-08T01:02:19;98477.97;;;1.42;100.00
73429;BME280;61643;49.564;17.412;2024-03-08T01:04:47;98486.19;;;1.47;100.00
73429;BME280;61643;49.564;17.412;2024-03-08T01:07:13;98464.50;;;1.37;100.00
73429;BME280;61643;49.564;17.412;2024-03-08T01:09:39;98476.72;;;1.38;100.00
73429;BME280;61643;49.564;17.412;2024-03-08T01:12:05;98477.69;;;1.30;100.00
73429;BME280;61643;49.564;17.412;2024-03-08T01:14:33;98479.84;;;1.20;100.00
73429;BME280;61643;49.564;17.412;2024-03-08T01:16:59;98468.94;;;1.09;100.00
73429;BME280;61643;49.564;17.412;2024-03-08T01:19:25;98474.44;;;1.07;100.00
73429;BME280;61643;49.564;17.412;2024-03-08T01:21:51;98473.56;;;1.00;100.00
73429;BME280;61643;49.564;17.412;2024-03-08T01:24:17;98472.28;;;0.96;100.00
73429;BME280;61643;49.564;17.412;2024-03-08T01:26:43;98466.09;;;0.89;100.00
73429;BME280;61643;49.564;17.412;2024-03-08T01:29:09;98482.28;;;0.94;100.00
73429;BME280;61643;49.564;17.412;2024-03-08T01:31:35;98485.66;;;0.88;100.00
73429;BME280;61643;49.564;17.412;2024-03-08T01:34:02;98480.47;;;0.80;100.00
73429;BME280;61643;49.564;17.412;2024-03-08T01:36:28;98483.06;;;0.73;100.00
73429;BME280;61643;49.564;17.412;2024-03-08T01:38:54;98471.94;;;0.63;100.00
73429;BME280;61643;49.564;17.412;2024-03-08T01:41:20;98481.53;;;0.64;100.00
73429;BME280;61643;49.564;17.412;2024-03-08T01:43:46;98480.44;;;0.59;100.00
73429;BME280;61643;49.564;17.412;2024-03-08T01:46:15;98470.00;;;0.51;100.00
73429;BME280;61643;49.564;17.412;2024-03-08T01:48:44;98474.78;;;0.62;100.00
73429;BME280;61643;49.564;17.412;2024-03-08T01:51:10;98456.13;;;0.70;100.00
73429;BME280;61643;49.564;17.412;2024-03-08T01:53:37;98480.13;;;0.83;100.00
73429;BME280;61643;49.564;17.412;2024-03-08T01:56:05;98477.03;;;0.79;100.00
73429;BME280;61643;49.564;17.412;2024-03-08T01:58:32;98468.97;;;0.73;100.00
73429;BME280;61643;49.564;17.412;2024-03-08T02:00:59;98467.81;;;0.75;100.00
73429;BME280;61643;49.564;17.412;2024-03-08T02:03:25;98462.06;;;0.72;100.00
73429;BME280;61643;49.564;17.412;2024-03-08T02:05:51;98447.19;;;0.71;100.00
73429;BME280;61643;49.564;17.412;2024-03-08T02:08:18;98453.81;;;0.81;100.00
73429;BME280;61643;49.564;17.412;2024-03-08T02:10:44;98448.44;;;0.75;100.00
73429;BME280;61643;49.564;17.412;2024-03-08T02:13:11;98449.25;;;0.75;100.00
73429;BME280;61643;49.564;17.412;2024-03-08T02:16:09;98437.09;;;0.81;100.00
73429;BME280;61643;49.564;17.412;2024-03-08T02:18:36;98434.19;;;0.76;100.00
73429;BME280;61643;49.564;17.412;2024-03-08T02:21:06;98431.28;;;0.92;100.00
73429;BME280;61643;49.564;17.412;2024-03-08T02:23:32;98425.53;;;0.88;100.00
73429;BME280;61643;49.564;17.412;2024-03-08T02:25:59;98414.31;;;0.86;100.00
73429;BME280;61643;49.564;17.412;2024-03-08T02:28:25;98429.63;;;0.91;100.00
73429;BME280;61643;49.564;17.412;2024-03-08T02:30:51;98425.91;;;0.85;100.00
73429;BME280;61643;49.564;17.412;2024-03-08T02:33:20;98417.75;;;0.87;100.00
73429;BME280;61643;49.564;17.412;2024-03-08T02:35:47;98425.06;;;1.06;100.00
73429;BME280;61643;49.564;17.412;2024-03-08T02:38:18;98424.75;;;0.94;100.00
73429;BME280;61643;49.564;17.412;2024-03-08T02:40:49;98416.28;;;0.78;100.00
73429;BME280;61643;49.564;17.412;2024-03-08T02:43:16;98421.31;;;0.73;100.00
73429;BME280;61643;49.564;17.412;2024-03-08T02:45:43;98433.38;;;0.75;100.00
73429;BME280;61643;49.564;17.412;2024-03-08T02:48:13;98427.81;;;0.70;100.00
73429;BME280;61643;49.564;17.412;2024-03-08T02:50:39;98439.22;;;0.71;100.00
73429;BME280;61643;49.564;17.412;2024-03-08T02:53:06;98438.34;;;0.64;100.00
73429;BME280;61643;49.564;17.412;2024-03-08T02:55:32;98435.03;;;0.62;100.00
73429;BME280;61643;49.564;17.412;2024-03-08T02:58:02;98436.63;;;0.56;100.00
73429;BME280;61643;49.564;17.412;2024-03-08T03:00:29;98443.75;;;0.56;100.00
73429;BME280;61643;49.564;17.412;2024-03-08T03:02:57;98429.81;;;0.47;100.00
73429;BME280;61643;49.564;17.412;2024-03-08T03:05:23;98428.56;;;0.43;100.00
73429;BME280;61643;49.564;17.412;2024-03-08T03:07:50;98413.16;;;0.32;100.00
73429;BME280;61643;49.564;17.412;2024-03-08T03:10:17;98438.50;;;0.41;100.00
73429;BME280;61643;49.564;17.412;2024-03-08T03:12:46;98433.97;;;0.35;100.00
73429;BME280;61643;49.564;17.412;2024-03-08T03:15:14;98440.69;;;0.37;100.00
73429;BME280;61643;49.564;17.412;2024-03-08T03:17:46;98427.78;;;0.28;100.00
73429;BME280;61643;49.564;17.412;2024-03-08T03:20:14;98437.63;;;0.19;100.00
73429;BME280;61643;49.564;17.412;2024-03-08T03:22:40;98444.28;;;0.15;100.00
73429;BME280;61643;49.564;17.412;2024-03-08T03:25:07;98444.03;;;0.10;100.00
73429;BME280;61643;49.564;17.412;2024-03-08T03:27:35;98429.34;;;0.08;100.00
73429;BME280;61643;49.564;17.412;2024-03-08T03:30:01;98435.22;;;0.03;100.00
73429;BME280;61643;49.564;17.412;2024-03-08T03:32:49;98444.13;;;0.02;100.00
73429;BME280;61643;49.564;17.412;2024-03-08T03:35:17;98436.28;;;-0.06;100.00
73429;BME280;61643;49.564;17.412;2024-03-08T03:37:43;98439.59;;;-0.04;100.00
73429;BME280;61643;49.564;17.412;2024-03-08T03:40:17;98440.59;;;-0.05;100.00
73429;BME280;61643;49.564;17.412;2024-03-08T03:42:45;98430.75;;;-0.11;100.00
73429;BME280;61643;49.564;17.412;2024-03-08T03:45:11;98434.41;;;-0.12;100.00
73429;BME280;61643;49.564;17.412;2024-03-08T03:47:37;98430.31;;;-0.15;100.00
73429;BME280;61643;49.564;17.412;2024-03-08T03:50:06;98428.91;;;-0.25;100.00
73429;BME280;61643;49.564;17.412;2024-03-08T03:52:33;98424.56;;;-0.18;100.00
73429;BME280;61643;49.564;17.412;2024-03-08T03:54:59;98430.09;;;0.02;100.00
73429;BME280;61643;49.564;17.412;2024-03-08T03:57:25;98429.75;;;0.26;100.00
73429;BME280;61643;49.564;17.412;2024-03-08T03:59:51;98445.16;;;0.37;100.00
73429;BME280;61643;49.564;17.412;2024-03-08T04:02:17;98421.91;;;0.32;100.00
73429;BME280;61643;49.564;17.412;2024-03-08T04:04:43;98439.03;;;0.36;100.00
73429;BME280;61643;49.564;17.412;2024-03-08T04:07:11;98432.13;;;0.35;100.00
73429;BME280;61643;49.564;17.412;2024-03-08T04:09:37;98426.13;;;0.27;100.00
73429;BME280;61643;49.564;17.412;2024-03-08T04:12:03;98402.31;;;0.12;100.00
73429;BME280;61643;49.564;17.412;2024-03-08T04:14:30;98416.00;;;0.16;100.00
73429;BME280;61643;49.564;17.412;2024-03-08T04:16:56;98425.97;;;0.14;100.00
73429;BME280;61643;49.564;17.412;2024-03-08T04:19:22;98431.28;;;0.14;100.00
73429;BME280;61643;49.564;17.412;2024-03-08T04:21:48;98439.00;;;0.15;100.00
73429;BME280;61643;49.564;17.412;2024-03-08T04:24:14;98443.66;;;0.13;100.00
73429;BME280;61643;49.564;17.412;2024-03-08T04:26:40;98443.59;;;0.07;100.00
73429;BME280;61643;49.564;17.412;2024-03-08T04:29:06;98452.53;;;0.06;100.00
73429;BME280;61643;49.564;17.412;2024-03-08T04:31:32;98435.69;;;-0.08;100.00
73429;BME280;61643;49.564;17.412;2024-03-08T04:33:58;98453.63;;;-0.04;100.00
73429;BME280;61643;49.564;17.412;2024-03-08T04:36:24;98442.69;;;-0.15;100.00
73429;BME280;61643;49.564;17.412;2024-03-08T04:38:50;98441.41;;;-0.19;100.00
73429;BME280;61643;49.564;17.412;2024-03-08T04:41:17;98451.47;;;-0.15;100.00
73429;BME280;61643;49.564;17.412;2024-03-08T04:43:44;98450.28;;;-0.27;100.00
73429;BME280;61643;49.564;17.412;2024-03-08T04:46:10;98459.47;;;-0.23;100.00
73429;BME280;61643;49.564;17.412;2024-03-08T04:48:36;98448.16;;;-0.31;100.00
73429;BME280;61643;49.564;17.412;2024-03-08T04:51:03;98464.69;;;-0.29;100.00
73429;BME280;61643;49.564;17.412;2024-03-08T04:53:29;98443.53;;;-0.44;100.00
73429;BME280;61643;49.564;17.412;2024-03-08T04:55:58;98450.09;;;-0.40;100.00
73429;BME280;61643;49.564;17.412;2024-03-08T04:58:24;98455.38;;;-0.40;100.00
73429;BME280;61643;49.564;17.412;2024-03-08T05:00:50;98452.91;;;-0.41;100.00
73429;BME280;61643;49.564;17.412;2024-03-08T05:03:16;98468.78;;;-0.41;100.00
73429;BME280;61643;49.564;17.412;2024-03-08T05:05:42;98461.00;;;-0.43;100.00
73429;BME280;61643;49.564;17.412;2024-03-08T05:08:08;98459.91;;;-0.48;100.00
73429;BME280;61643;49.564;17.412;2024-03-08T05:10:34;98451.31;;;-0.51;100.00
73429;BME280;61643;49.564;17.412;2024-03-08T05:13:00;98454.25;;;-0.45;100.00
73429;BME280;61643;49.564;17.412;2024-03-08T05:15:26;98437.13;;;-0.50;100.00
73429;BME280;61643;49.564;17.412;2024-03-08T05:17:52;98446.78;;;-0.42;100.00
73429;BME280;61643;49.564;17.412;2024-03-08T05:20:18;98441.34;;;-0.40;100.00
73429;BME280;61643;49.564;17.412;2024-03-08T05:22:45;98450.34;;;-0.35;100.00
73429;BME280;61643;49.564;17.412;2024-03-08T05:25:12;98448.25;;;-0.39;100.00
73429;BME280;61643;49.564;17.412;2024-03-08T05:27:40;98455.09;;;-0.30;100.00
73429;BME280;61643;49.564;17.412;2024-03-08T05:30:06;98446.50;;;-0.32;100.00
73429;BME280;61643;49.564;17.412;2024-03-08T05:32:32;98461.22;;;-0.30;100.00
73429;BME280;61643;49.564;17.412;2024-03-08T05:34:58;98457.75;;;-0.30;100.00
73429;BME280;61643;49.564;17.412;2024-03-08T05:37:24;98442.63;;;-0.36;100.00
73429;BME280;61643;49.564;17.412;2024-03-08T05:39:50;98465.41;;;-0.21;100.00
73429;BME280;61643;49.564;17.412;2024-03-08T05:42:16;98439.59;;;-0.33;100.00
73429;BME280;61643;49.564;17.412;2024-03-08T05:44:42;98453.28;;;-0.30;100.00
73429;BME280;61643;49.564;17.412;2024-03-08T05:47:09;98462.94;;;-0.22;100.00
73429;BME280;61643;49.564;17.412;2024-03-08T05:49:36;98463.94;;;-0.23;100.00
73429;BME280;61643;49.564;17.412;2024-03-08T05:52:02;98462.59;;;-0.19;100.00
73429;BME280;61643;49.564;17.412;2024-03-08T05:54:28;98466.59;;;-0.09;100.00
73429;BME280;61643;49.564;17.412;2024-03-08T05:56:54;98450.19;;;-0.19;100.00
73429;BME280;61643;49.564;17.412;2024-03-08T05:59:20;98460.09;;;-0.06;100.00
73429;BME280;61643;49.564;17.412;2024-03-08T06:01:49;98462.59;;;-0.05;100.00
73429;BME280;61643;49.564;17.412;2024-03-08T06:04:15;98465.38;;;0.09;100.00
73429;BME280;61643;49.564;17.412;2024-03-08T06:06:43;98452.97;;;0.09;100.00
73429;BME280;61643;49.564;17.412;2024-03-08T06:09:09;98460.44;;;0.20;100.00
73429;BME280;61643;49.564;17.412;2024-03-08T06:11:39;98454.34;;;0.20;100.00
73429;BME280;61643;49.564;17.412;2024-03-08T06:14:06;98462.63;;;0.31;100.00
73429;BME280;61643;49.564;17.412;2024-03-08T06:16:32;98459.31;;;0.29;100.00
73429;BME280;61643;49.564;17.412;2024-03-08T06:18:59;98453.75;;;0.39;100.00
73429;BME280;61643;49.564;17.412;2024-03-08T06:21:28;98470.72;;;0.44;100.00
73429;BME280;61643;49.564;17.412;2024-03-08T06:23:54;98461.59;;;0.47;100.00
73429;BME280;61643;49.564;17.412;2024-03-08T06:26:25;98458.75;;;0.48;100.00
73429;BME280;61643;49.564;17.412;2024-03-08T06:28:54;98468.31;;;0.64;100.00
73429;BME280;61643;49.564;17.412;2024-03-08T06:31:20;98477.19;;;0.78;100.00
73429;BME280;61643;49.564;17.412;2024-03-08T06:33:45;98472.03;;;0.91;100.00
73429;BME280;61643;49.564;17.412;2024-03-08T06:36:11;98469.47;;;0.97;100.00
73429;BME280;61643;49.564;17.412;2024-03-08T06:38:38;98465.16;;;1.18;100.00
73429;BME280;61643;49.564;17.412;2024-03-08T06:41:09;98480.84;;;1.40;100.00
73429;BME280;61643;49.564;17.412;2024-03-08T06:43:35;98482.47;;;1.41;100.00
73429;BME280;61643;49.564;17.412;2024-03-08T06:46:01;98472.53;;;1.50;100.00
73429;BME280;61643;49.564;17.412;2024-03-08T06:48:29;98462.03;;;1.63;100.00
73429;BME280;61643;49.564;17.412;2024-03-08T06:50:55;98460.88;;;1.72;100.00
73429;BME280;61643;49.564;17.412;2024-03-08T06:53:22;98480.03;;;1.68;100.00
73429;BME280;61643;49.564;17.412;2024-03-08T06:55:48;98471.28;;;1.74;100.00
73429;BME280;61643;49.564;17.412;2024-03-08T06:58:14;98468.63;;;1.74;100.00
73429;BME280;61643;49.564;17.412;2024-03-08T07:00:40;98474.03;;;1.87;100.00
73429;BME280;61643;49.564;17.412;2024-03-08T07:03:09;98470.19;;;1.96;100.00
73429;BME280;61643;49.564;17.412;2024-03-08T07:05:37;98472.50;;;2.06;100.00
73429;BME280;61643;49.564;17.412;2024-03-08T07:08:05;98479.50;;;2.13;100.00
73429;BME280;61643;49.564;17.412;2024-03-08T07:10:32;98468.44;;;2.10;100.00
73429;BME280;61643;49.564;17.412;2024-03-08T07:12:58;98483.00;;;2.20;100.00
73429;BME280;61643;49.564;17.412;2024-03-08T07:15:24;98478.13;;;2.24;100.00
73429;BME280;61643;49.564;17.412;2024-03-08T07:17:50;98478.69;;;2.19;100.00
73429;BME280;61643;49.564;17.412;2024-03-08T07:20:18;98470.00;;;1.97;100.00
73429;BME280;61643;49.564;17.412;2024-03-08T07:22:45;98472.63;;;1.91;100.00
73429;BME280;61643;49.564;17.412;2024-03-08T07:25:18;98484.00;;;1.85;100.00
73429;BME280;61643;49.564;17.412;2024-03-08T07:27:44;98494.59;;;1.78;100.00
73429;BME280;61643;49.564;17.412;2024-03-08T07:30:11;98495.53;;;1.71;100.00
73429;BME280;61643;49.564;17.412;2024-03-08T07:32:38;98494.94;;;1.69;100.00
73429;BME280;61643;49.564;17.412;2024-03-08T07:35:04;98479.41;;;1.66;100.00
73429;BME280;61643;49.564;17.412;2024-03-08T07:37:30;98484.50;;;1.67;100.00
73429;BME280;61643;49.564;17.412;2024-03-08T07:39:57;98482.91;;;1.73;100.00
73429;BME280;61643;49.564;17.412;2024-03-08T07:42:24;98483.41;;;1.83;100.00
73429;BME280;61643;49.564;17.412;2024-03-08T07:44:50;98477.94;;;1.91;100.00
73429;BME280;61643;49.564;17.412;2024-03-08T07:47:16;98487.03;;;2.10;100.00
73429;BME280;61643;49.564;17.412;2024-03-08T07:49:44;98477.59;;;2.07;100.00
73429;BME280;61643;49.564;17.412;2024-03-08T07:52:10;98472.28;;;2.07;100.00
73429;BME280;61643;49.564;17.412;2024-03-08T07:54:41;98479.72;;;2.18;100.00
73429;BME280;61643;49.564;17.412;2024-03-08T07:57:07;98485.69;;;2.27;100.00
73429;BME280;61643;49.564;17.412;2024-03-08T07:59:33;98484.03;;;2.26;100.00
73429;BME280;61643;49.564;17.412;2024-03-08T08:01:59;98484.06;;;2.32;100.00
73429;BME280;61643;49.564;17.412;2024-03-08T08:04:25;98493.69;;;2.33;100.00
73429;BME280;61643;49.564;17.412;2024-03-08T08:06:52;98494.91;;;2.37;100.00
73429;BME280;61643;49.564;17.412;2024-03-08T08:09:20;98488.63;;;2.45;100.00
73429;BME280;61643;49.564;17.412;2024-03-08T08:11:55;98489.44;;;2.45;100.00
73429;BME280;61643;49.564;17.412;2024-03-08T08:14:21;98487.41;;;2.47;100.00
73429;BME280;61643;49.564;17.412;2024-03-08T08:16:49;98482.72;;;2.50;100.00
73429;BME280;61643;49.564;17.412;2024-03-08T08:19:18;98480.28;;;2.55;100.00
73429;BME280;61643;49.564;17.412;2024-03-08T08:21:44;98478.28;;;2.63;100.00
73429;BME280;61643;49.564;17.412;2024-03-08T08:24:11;98480.09;;;2.63;100.00
73429;BME280;61643;49.564;17.412;2024-03-08T08:26:37;98473.97;;;2.69;100.00
73429;BME280;61643;49.564;17.412;2024-03-08T08:29:03;98470.72;;;2.73;100.00
73429;BME280;61643;49.564;17.412;2024-03-08T08:31:31;98472.78;;;2.78;100.00
73429;BME280;61643;49.564;17.412;2024-03-08T08:33:59;98464.44;;;3.01;100.00
73429;BME280;61643;49.564;17.412;2024-03-08T08:36:25;98470.81;;;3.13;100.00
73429;BME280;61643;49.564;17.412;2024-03-08T08:38:51;98477.16;;;3.25;100.00
73429;BME280;61643;49.564;17.412;2024-03-08T08:41:21;98459.38;;;3.25;100.00
73429;BME280;61643;49.564;17.412;2024-03-08T08:43:48;98474.09;;;3.47;100.00
73429;BME280;61643;49.564;17.412;2024-03-08T08:46:18;98477.75;;;3.66;100.00
73429;BME280;61643;49.564;17.412;2024-03-08T08:48:44;98475.50;;;3.83;100.00
73429;BME280;61643;49.564;17.412;2024-03-08T08:51:13;98459.53;;;3.83;100.00
73429;BME280;61643;49.564;17.412;2024-03-08T08:53:39;98466.28;;;3.79;100.00
73429;BME280;61643;49.564;17.412;2024-03-08T08:56:13;98463.44;;;3.74;100.00
73429;BME280;61643;49.564;17.412;2024-03-08T08:58:42;98483.50;;;3.70;100.00
73429;BME280;61643;49.564;17.412;2024-03-08T09:01:09;98464.06;;;3.63;100.00
73429;BME280;61643;49.564;17.412;2024-03-08T09:03:38;98455.88;;;3.51;100.00
73429;BME280;61643;49.564;17.412;2024-03-08T09:06:09;98461.00;;;3.46;100.00
73429;BME280;61643;49.564;17.412;2024-03-08T09:08:36;98472.66;;;3.58;100.00
73429;BME280;61643;49.564;17.412;2024-03-08T09:11:02;98446.47;;;3.62;100.00
73429;BME280;61643;49.564;17.412;2024-03-08T09:13:28;98456.88;;;3.70;100.00
73429;BME280;61643;49.564;17.412;2024-03-08T09:15:54;98443.56;;;3.70;100.00
73429;BME280;61643;49.564;17.412;2024-03-08T09:18:20;98458.09;;;3.80;100.00
73429;BME280;61643;49.564;17.412;2024-03-08T09:20:46;98454.22;;;3.83;100.00
73429;BME280;61643;49.564;17.412;2024-03-08T09:23:12;98456.84;;;3.96;100.00
73429;BME280;61643;49.564;17.412;2024-03-08T09:25:38;98465.19;;;4.06;100.00
73429;BME280;61643;49.564;17.412;2024-03-08T09:28:04;98451.88;;;4.13;100.00
73429;BME280;61643;49.564;17.412;2024-03-08T09:30:31;98461.03;;;4.23;100.00
73429;BME280;61643;49.564;17.412;2024-03-08T09:32:57;98462.88;;;4.29;100.00
73429;BME280;61643;49.564;17.412;2024-03-08T09:35:23;98460.38;;;4.34;100.00
73429;BME280;61643;49.564;17.412;2024-03-08T09:37:50;98438.72;;;4.24;100.00
73429;BME280;61643;49.564;17.412;2024-03-08T09:40:17;98451.38;;;4.35;100.00
73429;BME280;61643;49.564;17.412;2024-03-08T09:42:45;98456.91;;;4.40;100.00
73429;BME280;61643;49.564;17.412;2024-03-08T09:45:12;98456.06;;;4.46;100.00
73429;BME280;61643;49.564;17.412;2024-03-08T09:47:42;98445.81;;;4.43;100.00
73429;BME280;61643;49.564;17.412;2024-03-08T09:50:09;98458.28;;;4.50;100.00
73429;BME280;61643;49.564;17.412;2024-03-08T09:52:48;98455.22;;;4.46;100.00
73429;BME280;61643;49.564;17.412;2024-03-08T09:55:15;98452.78;;;4.44;100.00
73429;BME280;61643;49.564;17.412;2024-03-08T09:57:43;98461.19;;;4.48;100.00
73429;BME280;61643;49.564;17.412;2024-03-08T10:00:28;98463.19;;;4.53;100.00
73429;BME280;61643;49.564;17.412;2024-03-08T10:02:54;98455.97;;;4.60;100.00
73429;BME280;61643;49.564;17.412;2024-03-08T10:05:20;98453.13;;;4.61;100.00
73429;BME280;61643;49.564;17.412;2024-03-08T10:07:47;98460.06;;;4.69;100.00
73429;BME280;61643;49.564;17.412;2024-03-08T10:10:13;98455.94;;;4.73;100.00
73429;BME280;61643;49.564;17.412;2024-03-08T10:12:40;98452.25;;;4.74;100.00
73429;BME280;61643;49.564;17.412;2024-03-08T10:15:07;98452.16;;;4.87;100.00
73429;BME280;61643;49.564;17.412;2024-03-08T10:17:35;98451.28;;;4.93;100.00
73429;BME280;61643;49.564;17.412;2024-03-08T10:20:01;98460.28;;;4.99;100.00
73429;BME280;61643;49.564;17.412;2024-03-08T10:22:28;98454.72;;;5.00;100.00
73429;BME280;61643;49.564;17.412;2024-03-08T10:24:55;98454.66;;;5.13;100.00
73429;BME280;61643;49.564;17.412;2024-03-08T10:27:21;98448.88;;;5.16;100.00
73429;BME280;61643;49.564;17.412;2024-03-08T10:29:48;98451.06;;;5.26;100.00
73429;BME280;61643;49.564;17.412;2024-03-08T10:32:14;98453.91;;;5.31;100.00
73429;BME280;61643;49.564;17.412;2024-03-08T10:34:40;98440.13;;;5.34;100.00
73429;BME280;61643;49.564;17.412;2024-03-08T10:37:07;98446.81;;;5.43;100.00
73429;BME280;61643;49.564;17.412;2024-03-08T10:39:40;98441.47;;;5.43;100.00
73429;BME280;61643;49.564;17.412;2024-03-08T10:42:11;98442.66;;;5.47;100.00
73429;BME280;61643;49.564;17.412;2024-03-08T10:44:55;98437.72;;;5.51;100.00
73429;BME280;61643;49.564;17.412;2024-03-08T10:47:27;98432.38;;;5.51;100.00
73429;BME280;61643;49.564;17.412;2024-03-08T10:50:09;98439.09;;;5.60;100.00
73429;BME280;61643;49.564;17.412;2024-03-08T10:52:39;98432.03;;;5.65;100.00
73429;BME280;61643;49.564;17.412;2024-03-08T10:55:06;98428.06;;;5.74;100.00
73429;BME280;61643;49.564;17.412;2024-03-08T10:57:41;98428.56;;;5.89;100.00
73429;BME280;61643;49.564;17.412;2024-03-08T11:00:07;98407.31;;;5.94;100.00
73429;BME280;61643;49.564;17.412;2024-03-08T11:02:37;98411.94;;;6.06;100.00
73429;BME280;61643;49.564;17.412;2024-03-08T11:05:04;98404.81;;;6.00;100.00
73429;BME280;61643;49.564;17.412;2024-03-08T11:07:34;98415.78;;;6.10;100.00
73429;BME280;61643;49.564;17.412;2024-03-08T11:10:04;98399.56;;;5.93;100.00
73429;BME280;61643;49.564;17.412;2024-03-08T11:12:36;98395.28;;;5.85;100.00
73429;BME280;61643;49.564;17.412;2024-03-08T11:15:10;98410.53;;;6.03;100.00
73429;BME280;61643;49.564;17.412;2024-03-08T11:20:13;98384.69;;;5.97;100.00
73429;BME280;61643;49.564;17.412;2024-03-08T11:22:48;98400.41;;;6.05;100.00
73429;BME280;61643;49.564;17.412;2024-03-08T11:25:34;98406.28;;;6.14;100.00
73429;BME280;61643;49.564;17.412;2024-03-08T11:33:30;98390.03;;;6.15;100.00
73429;BME280;61643;49.564;17.412;2024-03-08T11:36:07;98391.66;;;6.16;100.00
73429;BME280;61643;49.564;17.412;2024-03-08T11:38:46;98385.50;;;6.16;100.00
73429;BME280;61643;49.564;17.412;2024-03-08T11:41:18;98389.50;;;6.25;100.00
73429;BME280;61643;49.564;17.412;2024-03-08T11:43:49;98376.16;;;6.25;100.00
73429;BME280;61643;49.564;17.412;2024-03-08T11:46:16;98392.19;;;6.25;100.00
73429;BME280;61643;49.564;17.412;2024-03-08T11:48:43;98379.03;;;6.23;100.00
73429;BME280;61643;49.564;17.412;2024-03-08T11:51:11;98382.16;;;6.20;100.00
73429;BME280;61643;49.564;17.412;2024-03-08T11:53:38;98378.91;;;6.18;100.00
73429;BME280;61643;49.564;17.412;2024-03-08T11:56:12;98381.94;;;6.22;100.00
73429;BME280;61643;49.564;17.412;2024-03-08T11:58:39;98368.41;;;6.35;100.00
73429;BME280;61643;49.564;17.412;2024-03-08T12:01:10;98371.84;;;6.54;100.00
73429;BME280;61643;49.564;17.412;2024-03-08T12:03:40;98366.78;;;6.64;100.00
73429;BME280;61643;49.564;17.412;2024-03-08T12:06:08;98363.63;;;6.67;100.00
73429;BME280;61643;49.564;17.412;2024-03-08T12:08:37;98359.09;;;6.67;100.00
73429;BME280;61643;49.564;17.412;2024-03-08T12:11:04;98365.75;;;6.65;100.00
73429;BME280;61643;49.564;17.412;2024-03-08T12:13:34;98350.00;;;6.57;100.00
73429;BME280;61643;49.564;17.412;2024-03-08T12:16:02;98360.69;;;6.57;100.00
73429;BME280;61643;49.564;17.412;2024-03-08T12:18:33;98359.88;;;6.56;100.00
73429;BME280;61643;49.564;17.412;2024-03-08T12:23:36;98352.41;;;6.47;100.00
73429;BME280;61643;49.564;17.412;2024-03-08T12:26:13;98350.69;;;6.52;100.00
73429;BME280;61643;49.564;17.412;2024-03-08T12:28:40;98351.88;;;6.56;100.00
73429;BME280;61643;49.564;17.412;2024-03-08T12:31:07;98343.97;;;6.61;100.00
73429;BME280;61643;49.564;17.412;2024-03-08T12:33:57;98349.59;;;6.71;100.00
73429;BME280;61643;49.564;17.412;2024-03-08T12:36:26;98345.31;;;6.82;100.00
73429;BME280;61643;49.564;17.412;2024-03-08T12:38:53;98342.31;;;6.90;100.00
73429;BME280;61643;49.564;17.412;2024-03-08T12:41:20;98340.56;;;6.96;100.00
73429;BME280;61643;49.564;17.412;2024-03-08T12:43:47;98334.38;;;6.95;100.00
73429;BME280;61643;49.564;17.412;2024-03-08T12:46:20;98336.50;;;7.05;100.00
73429;BME280;61643;49.564;17.412;2024-03-08T12:48:48;98342.78;;;7.10;100.00
73429;BME280;61643;49.564;17.412;2024-03-08T12:51:18;98332.78;;;7.17;100.00
73429;BME280;61643;49.564;17.412;2024-03-08T12:53:45;98327.78;;;7.21;100.00
73429;BME280;61643;49.564;17.412;2024-03-08T12:56:21;98332.59;;;7.30;100.00
73429;BME280;61643;49.564;17.412;2024-03-08T12:58:54;98327.56;;;7.34;100.00
73429;BME280;61643;49.564;17.412;2024-03-08T13:01:20;98330.25;;;7.34;100.00